sensor_id;sensor_type;location;lat;lon;timestamp;temperature;humidity
10986;DHT22;5546;48.714;8.738;2022-10-16T00:01:13;18.40;99.90
10986;DHT22;5546;48.714;8.738;2022-10-16T00:03:40;18.30;99.90
10986;DHT22;5546;48.714;8.738;2022-10-16T00:06:07;18.20;99.90
10986;DHT22;5546;48.714;8.738;2022-10-16T00:08:34;18.30;99.90
10986;DHT22;5546;48.714;8.738;2022-10-16T00:11:09;18.00;99.90
10986;DHT22;5546;48.714;8.738;2022-10-16T00:13:37;18.00;99.90
10986;DHT22;5546;48.714;8.738;2022-10-16T00:16:03;18.00;99.90
10986;DHT22;5546;48.714;8.738;2022-10-16T00:18:29;18.00;99.90
10986;DHT22;5546;48.714;8.738;2022-10-16T00:20:55;17.90;99.90
10986;DHT22;5546;48.714;8.738;2022-10-16T00:23:21;17.90;99.90
10986;DHT22;5546;48.714;8.738;2022-10-16T00:25:58;18.00;99.90
10986;DHT22;5546;48.714;8.738;2022-10-16T00:28:24;18.10;99.90
10986;DHT22;5546;48.714;8.738;2022-10-16T00:30:49;18.10;99.90
10986;DHT22;5546;48.714;8.738;2022-10-16T00:33:15;18.00;99.90
10986;DHT22;5546;48.714;8.738;2022-10-16T00:35:41;18.00;99.90
10986;DHT22;5546;48.714;8.738;2022-10-16T00:38:06;18.10;99.90
10986;DHT22;5546;48.714;8.738;2022-10-16T00:40:31;18.20;99.90
10986;DHT22;5546;48.714;8.738;2022-10-16T00:42:57;18.40;99.90
10986;DHT22;5546;48.714;8.738;2022-10-16T00:45:23;18.40;99.90
10986;DHT22;5546;48.714;8.738;2022-10-16T00:47:50;18.40;99.90
10986;DHT22;5546;48.714;8.738;2022-10-16T00:50:32;18.50;99.90
10986;DHT22;5546;48.714;8.738;2022-10-16T00:53:00;18.50;99.90
10986;DHT22;5546;48.714;8.738;2022-10-16T00:55:27;18.40;99.90
10986;DHT22;5546;48.714;8.738;2022-10-16T00:57:55;18.40;99.90
10986;DHT22;5546;48.714;8.738;2022-10-16T01:00:24;18.30;99.90
10986;DHT22;5546;48.714;8.738;2022-10-16T01:02:54;18.30;99.90
10986;DHT22;5546;48.714;8.738;2022-10-16T01:05:22;18.30;99.90
10986;DHT22;5546;48.714;8.738;2022-10-16T01:08:18;18.40;99.90
10986;DHT22;5546;48.714;8.738;2022-10-16T01:10:57;17.80;99.90
10986;DHT22;5546;48.714;8.738;2022-10-16T01:13:27;17.80;99.90
10986;DHT22;5546;48.714;8.738;2022-10-16T01:16:00;17.80;99.90
10986;DHT22;5546;48.714;8.738;2022-10-16T01:21:36;18.00;99.90
10986;DHT22;5546;48.714;8.738;2022-10-16T01:24:31;17.90;99.90
10986;DHT22;5546;48.714;8.738;2022-10-16T01:29:49;18.10;99.90
10986;DHT22;5546;48.714;8.738;2022-10-16T01:35:03;18.10;99.90
10986;DHT22;5546;48.714;8.738;2022-10-16T01:37:36;18.10;99.90
10986;DHT22;5546;48.714;8.738;2022-10-16T01:40:09;18.20;99.90
10986;DHT22;5546;48.714;8.738;2022-10-16T01:42:40;18.10;99.90
10986;DHT22;5546;48.714;8.738;2022-10-16T01:45:08;18.10;99.90
10986;DHT22;5546;48.714;8.738;2022-10-16T01:47:37;18.10;99.90
10986;DHT22;5546;48.714;8.738;2022-10-16T01:50:05;18.40;99.90
10986;DHT22;5546;48.714;8.738;2022-10-16T01:52:34;18.20;99.90
10986;DHT22;5546;48.714;8.738;2022-10-16T01:55:03;18.20;99.90
10986;DHT22;5546;48.714;8.738;2022-10-16T01:57:30;18.30;99.90
10986;DHT22;5546;48.714;8.738;2022-10-16T02:00:00;18.30;99.90
10986;DHT22;5546;48.714;8.738;2022-10-16T02:02:28;18.50;99.90
10986;DHT22;5546;48.714;8.738;2022-10-16T02:04:59;18.50;99.90
10986;DHT22;5546;48.714;8.738;2022-10-16T02:07:28;18.50;99.90
10986;DHT22;5546;48.714;8.738;2022-10-16T02:09:54;18.30;99.90
10986;DHT22;5546;48.714;8.738;2022-10-16T02:12:28;17.80;99.90
10986;DHT22;5546;48.714;8.738;2022-10-16T02:14:55;17.50;99.90
10986;DHT22;5546;48.714;8.738;2022-10-16T02:17:21;17.10;99.90
10986;DHT22;5546;48.714;8.738;2022-10-16T02:19:48;16.70;99.90
10986;DHT22;5546;48.714;8.738;2022-10-16T02:22:39;16.70;99.90
10986;DHT22;5546;48.714;8.738;2022-10-16T02:28:08;16.70;99.90
10986;DHT22;5546;48.714;8.738;2022-10-16T02:30:50;16.60;99.90
10986;DHT22;5546;48.714;8.738;2022-10-16T02:33:17;16.40;99.90
10986;DHT22;5546;48.714;8.738;2022-10-16T02:35:45;16.40;99.90
10986;DHT22;5546;48.714;8.738;2022-10-16T02:38:12;16.90;99.90
10986;DHT22;5546;48.714;8.738;2022-10-16T02:40:39;17.30;99.90
10986;DHT22;5546;48.714;8.738;2022-10-16T02:43:06;17.50;99.90
10986;DHT22;5546;48.714;8.738;2022-10-16T02:45:32;17.60;99.90
10986;DHT22;5546;48.714;8.738;2022-10-16T02:47:57;17.80;99.90
10986;DHT22;5546;48.714;8.738;2022-10-16T02:50:23;17.90;99.90
10986;DHT22;5546;48.714;8.738;2022-10-16T02:52:50;17.90;99.90
10986;DHT22;5546;48.714;8.738;2022-10-16T02:55:15;17.90;99.90
10986;DHT22;5546;48.714;8.738;2022-10-16T02:57:41;17.80;99.90
10986;DHT22;5546;48.714;8.738;2022-10-16T03:00:09;17.40;99.90
10986;DHT22;5546;48.714;8.738;2022-10-16T03:02:35;16.90;99.90
10986;DHT22;5546;48.714;8.738;2022-10-16T03:05:01;16.60;99.90
10986;DHT22;5546;48.714;8.738;2022-10-16T03:07:26;16.40;99.90
10986;DHT22;5546;48.714;8.738;2022-10-16T03:09:52;16.70;99.90
10986;DHT22;5546;48.714;8.738;2022-10-16T03:12:17;17.40;99.90
10986;DHT22;5546;48.714;8.738;2022-10-16T03:14:43;17.30;99.90
10986;DHT22;5546;48.714;8.738;2022-10-16T03:17:08;17.50;99.90
10986;DHT22;5546;48.714;8.738;2022-10-16T03:19:34;17.50;99.90
10986;DHT22;5546;48.714;8.738;2022-10-16T03:22:01;17.70;99.90
10986;DHT22;5546;48.714;8.738;2022-10-16T03:24:26;18.00;99.90
10986;DHT22;5546;48.714;8.738;2022-10-16T03:26:52;18.00;99.90
10986;DHT22;5546;48.714;8.738;2022-10-16T03:29:17;17.70;99.90
10986;DHT22;5546;48.714;8.738;2022-10-16T03:31:43;17.70;99.90
10986;DHT22;5546;48.714;8.738;2022-10-16T03:34:08;17.60;99.90
10986;DHT22;5546;48.714;8.738;2022-10-16T03:36:34;17.70;99.90
10986;DHT22;5546;48.714;8.738;2022-10-16T03:38:59;17.70;99.90
10986;DHT22;5546;48.714;8.738;2022-10-16T03:41:25;17.50;99.90
10986;DHT22;5546;48.714;8.738;2022-10-16T03:43:50;17.60;99.90
10986;DHT22;5546;48.714;8.738;2022-10-16T03:46:16;17.60;99.90
10986;DHT22;5546;48.714;8.738;2022-10-16T03:48:41;17.20;99.90
10986;DHT22;5546;48.714;8.738;2022-10-16T03:51:07;17.20;99.90
10986;DHT22;5546;48.714;8.738;2022-10-16T03:53:32;17.40;99.90
10986;DHT22;5546;48.714;8.738;2022-10-16T03:55:58;17.80;99.90
10986;DHT22;5546;48.714;8.738;2022-10-16T03:58:23;17.80;99.90
10986;DHT22;5546;48.714;8.738;2022-10-16T04:00:49;17.80;99.90
10986;DHT22;5546;48.714;8.738;2022-10-16T04:03:15;17.90;99.90
10986;DHT22;5546;48.714;8.738;2022-10-16T04:05:40;17.90;99.90
10986;DHT22;5546;48.714;8.738;2022-10-16T04:08:06;17.90;99.90
10986;DHT22;5546;48.714;8.738;2022-10-16T04:10:31;17.90;99.90
10986;DHT22;5546;48.714;8.738;2022-10-16T04:12:57;18.10;99.90
10986;DHT22;5546;48.714;8.738;2022-10-16T04:15:23;18.00;99.90
10986;DHT22;5546;48.714;8.738;2022-10-16T04:17:49;18.10;99.90
10986;DHT22;5546;48.714;8.738;2022-10-16T04:20:15;18.00;99.90
10986;DHT22;5546;48.714;8.738;2022-10-16T04:22:41;17.90;99.90
10986;DHT22;5546;48.714;8.738;2022-10-16T04:25:07;17.90;99.90
10986;DHT22;5546;48.714;8.738;2022-10-16T04:27:32;17.90;99.90
10986;DHT22;5546;48.714;8.738;2022-10-16T04:29:59;18.00;99.90
10986;DHT22;5546;48.714;8.738;2022-10-16T04:32:25;18.00;99.90
10986;DHT22;5546;48.714;8.738;2022-10-16T04:34:51;17.90;99.90
10986;DHT22;5546;48.714;8.738;2022-10-16T04:37:17;17.90;99.90
10986;DHT22;5546;48.714;8.738;2022-10-16T04:39:42;17.80;99.90
10986;DHT22;5546;48.714;8.738;2022-10-16T04:42:08;17.80;99.90
10986;DHT22;5546;48.714;8.738;2022-10-16T04:44:34;17.70;99.90
10986;DHT22;5546;48.714;8.738;2022-10-16T04:46:59;17.60;99.90
10986;DHT22;5546;48.714;8.738;2022-10-16T04:49:25;17.60;99.90
10986;DHT22;5546;48.714;8.738;2022-10-16T04:51:51;17.70;99.90
10986;DHT22;5546;48.714;8.738;2022-10-16T04:54:16;17.90;99.90
10986;DHT22;5546;48.714;8.738;2022-10-16T04:56:42;18.00;99.90
10986;DHT22;5546;48.714;8.738;2022-10-16T04:59:16;18.00;99.90
10986;DHT22;5546;48.714;8.738;2022-10-16T05:01:42;17.70;99.90
10986;DHT22;5546;48.714;8.738;2022-10-16T05:04:08;17.80;99.90
10986;DHT22;5546;48.714;8.738;2022-10-16T05:06:34;17.80;99.90
10986;DHT22;5546;48.714;8.738;2022-10-16T05:09:00;17.80;99.90
10986;DHT22;5546;48.714;8.738;2022-10-16T05:11:25;17.80;99.90
10986;DHT22;5546;48.714;8.738;2022-10-16T05:13:51;17.60;99.90
10986;DHT22;5546;48.714;8.738;2022-10-16T05:16:16;17.50;99.90
10986;DHT22;5546;48.714;8.738;2022-10-16T05:18:42;17.50;99.90
10986;DHT22;5546;48.714;8.738;2022-10-16T05:21:08;17.50;99.90
10986;DHT22;5546;48.714;8.738;2022-10-16T05:23:33;17.30;99.90
10986;DHT22;5546;48.714;8.738;2022-10-16T05:25:59;17.50;99.90
10986;DHT22;5546;48.714;8.738;2022-10-16T05:28:26;17.50;99.90
10986;DHT22;5546;48.714;8.738;2022-10-16T05:30:53;17.50;99.90
10986;DHT22;5546;48.714;8.738;2022-10-16T05:33:24;17.30;99.90
10986;DHT22;5546;48.714;8.738;2022-10-16T05:35:50;17.20;99.90
10986;DHT22;5546;48.714;8.738;2022-10-16T05:38:18;17.10;99.90
10986;DHT22;5546;48.714;8.738;2022-10-16T05:40:50;17.10;99.90
10986;DHT22;5546;48.714;8.738;2022-10-16T05:43:16;17.50;99.90
10986;DHT22;5546;48.714;8.738;2022-10-16T05:45:42;17.40;99.90
10986;DHT22;5546;48.714;8.738;2022-10-16T05:48:08;17.30;99.90
10986;DHT22;5546;48.714;8.738;2022-10-16T05:50:33;17.50;99.90
10986;DHT22;5546;48.714;8.738;2022-10-16T05:52:59;17.30;99.90
10986;DHT22;5546;48.714;8.738;2022-10-16T05:55:24;17.20;99.90
10986;DHT22;5546;48.714;8.738;2022-10-16T05:57:50;17.10;99.90
10986;DHT22;5546;48.714;8.738;2022-10-16T06:00:15;17.20;99.90
10986;DHT22;5546;48.714;8.738;2022-10-16T06:02:41;17.30;99.90
10986;DHT22;5546;48.714;8.738;2022-10-16T06:05:06;17.30;99.90
10986;DHT22;5546;48.714;8.738;2022-10-16T06:07:34;17.30;99.90
10986;DHT22;5546;48.714;8.738;2022-10-16T06:10:00;17.10;99.90
10986;DHT22;5546;48.714;8.738;2022-10-16T06:12:26;17.20;99.90
10986;DHT22;5546;48.714;8.738;2022-10-16T06:14:52;17.40;99.90
10986;DHT22;5546;48.714;8.738;2022-10-16T06:17:18;17.40;99.90
10986;DHT22;5546;48.714;8.738;2022-10-16T06:19:43;17.40;99.90
10986;DHT22;5546;48.714;8.738;2022-10-16T06:22:09;17.50;99.90
10986;DHT22;5546;48.714;8.738;2022-10-16T06:24:34;17.50;99.90
10986;DHT22;5546;48.714;8.738;2022-10-16T06:27:00;17.40;99.90
10986;DHT22;5546;48.714;8.738;2022-10-16T06:29:25;17.50;99.90
10986;DHT22;5546;48.714;8.738;2022-10-16T06:31:51;17.50;99.90
10986;DHT22;5546;48.714;8.738;2022-10-16T06:34:18;17.60;99.90
10986;DHT22;5546;48.714;8.738;2022-10-16T06:36:43;17.70;99.90
10986;DHT22;5546;48.714;8.738;2022-10-16T06:39:09;17.80;99.90
10986;DHT22;5546;48.714;8.738;2022-10-16T06:41:35;17.90;99.90
10986;DHT22;5546;48.714;8.738;2022-10-16T06:44:01;17.90;99.90
10986;DHT22;5546;48.714;8.738;2022-10-16T06:46:27;17.90;99.90
10986;DHT22;5546;48.714;8.738;2022-10-16T06:48:53;17.90;99.90
10986;DHT22;5546;48.714;8.738;2022-10-16T06:51:23;17.90;99.90
10986;DHT22;5546;48.714;8.738;2022-10-16T06:53:51;18.10;99.90
10986;DHT22;5546;48.714;8.738;2022-10-16T06:56:22;18.30;99.90
10986;DHT22;5546;48.714;8.738;2022-10-16T06:58:49;18.20;99.90
10986;DHT22;5546;48.714;8.738;2022-10-16T07:01:16;18.20;99.90
10986;DHT22;5546;48.714;8.738;2022-10-16T07:03:43;18.30;99.90
10986;DHT22;5546;48.714;8.738;2022-10-16T07:06:11;18.50;99.90
10986;DHT22;5546;48.714;8.738;2022-10-16T07:08:38;18.50;99.90
10986;DHT22;5546;48.714;8.738;2022-10-16T07:11:07;18.60;99.80
10986;DHT22;5546;48.714;8.738;2022-10-16T07:13:33;18.60;99.70
10986;DHT22;5546;48.714;8.738;2022-10-16T07:16:05;18.60;99.70
10986;DHT22;5546;48.714;8.738;2022-10-16T07:18:30;18.70;99.50
10986;DHT22;5546;48.714;8.738;2022-10-16T07:21:13;18.70;99.30
10986;DHT22;5546;48.714;8.738;2022-10-16T07:23:39;18.70;99.70
10986;DHT22;5546;48.714;8.738;2022-10-16T07:26:05;18.80;99.70
10986;DHT22;5546;48.714;8.738;2022-10-16T07:28:31;18.70;99.40
10986;DHT22;5546;48.714;8.738;2022-10-16T07:31:01;18.60;99.60
10986;DHT22;5546;48.714;8.738;2022-10-16T07:33:27;18.30;99.90
10986;DHT22;5546;48.714;8.738;2022-10-16T07:35:54;17.60;99.90
10986;DHT22;5546;48.714;8.738;2022-10-16T07:38:21;17.60;99.90
10986;DHT22;5546;48.714;8.738;2022-10-16T07:40:47;17.60;99.90
10986;DHT22;5546;48.714;8.738;2022-10-16T07:43:13;17.80;99.90
10986;DHT22;5546;48.714;8.738;2022-10-16T07:45:47;17.70;99.90
10986;DHT22;5546;48.714;8.738;2022-10-16T07:48:12;18.00;99.90
10986;DHT22;5546;48.714;8.738;2022-10-16T07:50:38;18.60;99.90
10986;DHT22;5546;48.714;8.738;2022-10-16T07:53:04;19.00;99.90
10986;DHT22;5546;48.714;8.738;2022-10-16T07:55:29;19.50;99.40
10986;DHT22;5546;48.714;8.738;2022-10-16T07:57:55;20.00;99.00
10986;DHT22;5546;48.714;8.738;2022-10-16T08:00:20;20.50;97.80
10986;DHT22;5546;48.714;8.738;2022-10-16T08:02:46;21.10;97.30
10986;DHT22;5546;48.714;8.738;2022-10-16T08:05:12;21.60;96.50
10986;DHT22;5546;48.714;8.738;2022-10-16T08:07:37;21.80;95.70
10986;DHT22;5546;48.714;8.738;2022-10-16T08:10:03;21.50;95.90
10986;DHT22;5546;48.714;8.738;2022-10-16T08:12:29;21.00;96.70
10986;DHT22;5546;48.714;8.738;2022-10-16T08:14:54;21.00;97.10
10986;DHT22;5546;48.714;8.738;2022-10-16T08:17:20;21.40;96.30
10986;DHT22;5546;48.714;8.738;2022-10-16T08:19:46;21.30;96.30
10986;DHT22;5546;48.714;8.738;2022-10-16T08:22:16;21.30;96.30
10986;DHT22;5546;48.714;8.738;2022-10-16T08:24:41;21.40;96.40
10986;DHT22;5546;48.714;8.738;2022-10-16T08:27:07;21.40;96.50
10986;DHT22;5546;48.714;8.738;2022-10-16T08:29:34;21.70;96.40
10986;DHT22;5546;48.714;8.738;2022-10-16T08:31:59;21.30;95.60
10986;DHT22;5546;48.714;8.738;2022-10-16T08:34:25;21.30;95.90
10986;DHT22;5546;48.714;8.738;2022-10-16T08:36:53;20.90;96.70
10986;DHT22;5546;48.714;8.738;2022-10-16T08:39:18;20.40;97.40
10986;DHT22;5546;48.714;8.738;2022-10-16T08:42:06;19.80;98.30
10986;DHT22;5546;48.714;8.738;2022-10-16T08:49:56;19.30;99.70
10986;DHT22;5546;48.714;8.738;2022-10-16T08:52:25;19.30;99.40
10986;DHT22;5546;48.714;8.738;2022-10-16T08:54:55;19.10;99.90
10986;DHT22;5546;48.714;8.738;2022-10-16T08:57:22;19.10;99.90
10986;DHT22;5546;48.714;8.738;2022-10-16T08:59:49;19.40;99.90
10986;DHT22;5546;48.714;8.738;2022-10-16T09:02:27;19.40;99.50
10986;DHT22;5546;48.714;8.738;2022-10-16T09:07:39;19.80;99.10
10986;DHT22;5546;48.714;8.738;2022-10-16T09:19:03;20.60;98.30
10986;DHT22;5546;48.714;8.738;2022-10-16T09:21:41;21.30;97.00
10986;DHT22;5546;48.714;8.738;2022-10-16T09:24:13;21.40;97.00
10986;DHT22;5546;48.714;8.738;2022-10-16T09:26:39;22.00;97.70
10986;DHT22;5546;48.714;8.738;2022-10-16T09:29:05;22.80;97.20
10986;DHT22;5546;48.714;8.738;2022-10-16T09:31:30;23.90;95.90
10986;DHT22;5546;48.714;8.738;2022-10-16T09:33:59;25.50;94.80
10986;DHT22;5546;48.714;8.738;2022-10-16T09:36:27;27.10;91.60
10986;DHT22;5546;48.714;8.738;2022-10-16T09:39:07;29.50;86.00
10986;DHT22;5546;48.714;8.738;2022-10-16T09:41:39;31.90;80.10
10986;DHT22;5546;48.714;8.738;2022-10-16T09:44:28;32.50;72.60
10986;DHT22;5546;48.714;8.738;2022-10-16T09:47:27;31.60;75.90
10986;DHT22;5546;48.714;8.738;2022-10-16T09:52:21;32.80;70.30
10986;DHT22;5546;48.714;8.738;2022-10-16T09:54:58;34.00;65.50
10986;DHT22;5546;48.714;8.738;2022-10-16T09:57:25;34.50;63.30
10986;DHT22;5546;48.714;8.738;2022-10-16T09:59:56;34.40;62.40
10986;DHT22;5546;48.714;8.738;2022-10-16T10:02:34;33.60;61.90
10986;DHT22;5546;48.714;8.738;2022-10-16T10:05:01;30.10;69.40
10986;DHT22;5546;48.714;8.738;2022-10-16T10:07:30;28.00;73.70
10986;DHT22;5546;48.714;8.738;2022-10-16T10:09:59;27.30;75.90
10986;DHT22;5546;48.714;8.738;2022-10-16T10:12:27;26.70;79.50
10986;DHT22;5546;48.714;8.738;2022-10-16T10:14:55;26.40;80.10
10986;DHT22;5546;48.714;8.738;2022-10-16T10:17:26;26.70;80.30
10986;DHT22;5546;48.714;8.738;2022-10-16T10:19:58;26.50;79.50
10986;DHT22;5546;48.714;8.738;2022-10-16T10:22:43;26.90;84.20
10986;DHT22;5546;48.714;8.738;2022-10-16T10:31:10;28.60;77.70
10986;DHT22;5546;48.714;8.738;2022-10-16T10:34:17;31.10;71.30
10986;DHT22;5546;48.714;8.738;2022-10-16T10:36:52;30.80;68.60
10986;DHT22;5546;48.714;8.738;2022-10-16T10:39:37;30.10;69.50
10986;DHT22;5546;48.714;8.738;2022-10-16T10:42:19;31.00;68.60
10986;DHT22;5546;48.714;8.738;2022-10-16T10:50:22;32.60;72.60
10986;DHT22;5546;48.714;8.738;2022-10-16T10:53:17;33.40;62.20
10986;DHT22;5546;48.714;8.738;2022-10-16T10:55:54;34.10;63.80
10986;DHT22;5546;48.714;8.738;2022-10-16T11:01:45;33.70;61.30
10986;DHT22;5546;48.714;8.738;2022-10-16T11:07:04;30.60;74.60
10986;DHT22;5546;48.714;8.738;2022-10-16T11:09:47;30.60;75.40
10986;DHT22;5546;48.714;8.738;2022-10-16T11:12:36;30.20;79.80
10986;DHT22;5546;48.714;8.738;2022-10-16T11:17:38;29.40;79.70
10986;DHT22;5546;48.714;8.738;2022-10-16T11:20:16;29.00;81.50
10986;DHT22;5546;48.714;8.738;2022-10-16T11:22:52;29.10;82.20
10986;DHT22;5546;48.714;8.738;2022-10-16T11:25:26;29.10;82.80
10986;DHT22;5546;48.714;8.738;2022-10-16T11:30:30;29.00;75.60
10986;DHT22;5546;48.714;8.738;2022-10-16T11:38:14;28.90;83.60
10986;DHT22;5546;48.714;8.738;2022-10-16T11:40:41;28.90;83.80
10986;DHT22;5546;48.714;8.738;2022-10-16T11:43:22;28.70;80.20
10986;DHT22;5546;48.714;8.738;2022-10-16T11:45:53;28.50;85.30
10986;DHT22;5546;48.714;8.738;2022-10-16T11:48:53;28.70;79.70
10986;DHT22;5546;48.714;8.738;2022-10-16T11:51:32;28.60;86.00
10986;DHT22;5546;48.714;8.738;2022-10-16T11:54:35;28.40;86.80
10986;DHT22;5546;48.714;8.738;2022-10-16T11:56:56;28.60;86.20
10986;DHT22;5546;48.714;8.738;2022-10-16T11:59:38;28.50;85.80
10986;DHT22;5546;48.714;8.738;2022-10-16T12:04:41;28.70;84.30
10986;DHT22;5546;48.714;8.738;2022-10-16T12:07:24;28.70;84.40
10986;DHT22;5546;48.714;8.738;2022-10-16T12:09:52;29.00;85.70
10986;DHT22;5546;48.714;8.738;2022-10-16T12:15:02;29.90;82.90
10986;DHT22;5546;48.714;8.738;2022-10-16T12:17:35;30.00;82.60
10986;DHT22;5546;48.714;8.738;2022-10-16T12:20:26;30.60;83.00
10986;DHT22;5546;48.714;8.738;2022-10-16T12:23:02;31.80;79.50
10986;DHT22;5546;48.714;8.738;2022-10-16T12:30:41;32.50;74.40
10986;DHT22;5546;48.714;8.738;2022-10-16T12:33:39;31.40;75.30
10986;DHT22;5546;48.714;8.738;2022-10-16T12:36:13;28.70;81.00
10986;DHT22;5546;48.714;8.738;2022-10-16T12:38:51;27.90;85.40
10986;DHT22;5546;48.714;8.738;2022-10-16T12:41:28;27.90;86.30
10986;DHT22;5546;48.714;8.738;2022-10-16T12:43:54;27.80;83.70
10986;DHT22;5546;48.714;8.738;2022-10-16T12:48:51;27.60;84.90
10986;DHT22;5546;48.714;8.738;2022-10-16T12:51:36;27.40;85.60
10986;DHT22;5546;48.714;8.738;2022-10-16T13:08:11;27.60;87.50
10986;DHT22;5546;48.714;8.738;2022-10-16T13:11:13;27.70;86.50
10986;DHT22;5546;48.714;8.738;2022-10-16T13:19:33;26.90;87.80
10986;DHT22;5546;48.714;8.738;2022-10-16T13:22:17;27.30;86.50
10986;DHT22;5546;48.714;8.738;2022-10-16T13:25:18;27.40;87.10
10986;DHT22;5546;48.714;8.738;2022-10-16T13:30:24;27.20;87.00
10986;DHT22;5546;48.714;8.738;2022-10-16T13:33:07;26.90;86.90
10986;DHT22;5546;48.714;8.738;2022-10-16T13:35:34;26.90;87.10
10986;DHT22;5546;48.714;8.738;2022-10-16T13:38:15;26.60;88.80
10986;DHT22;5546;48.714;8.738;2022-10-16T13:40:58;26.50;89.30
10986;DHT22;5546;48.714;8.738;2022-10-16T13:43:40;26.30;88.90
10986;DHT22;5546;48.714;8.738;2022-10-16T13:46:13;26.30;90.00
10986;DHT22;5546;48.714;8.738;2022-10-16T13:48:39;26.30;90.30
10986;DHT22;5546;48.714;8.738;2022-10-16T13:51:16;25.90;90.80
10986;DHT22;5546;48.714;8.738;2022-10-16T13:53:43;26.00;90.50
10986;DHT22;5546;48.714;8.738;2022-10-16T13:56:17;26.10;90.80
10986;DHT22;5546;48.714;8.738;2022-10-16T13:58:43;26.10;90.20
10986;DHT22;5546;48.714;8.738;2022-10-16T14:01:19;26.10;90.90
10986;DHT22;5546;48.714;8.738;2022-10-16T14:03:46;25.40;91.40
10986;DHT22;5546;48.714;8.738;2022-10-16T14:06:17;25.40;91.80
10986;DHT22;5546;48.714;8.738;2022-10-16T14:08:46;25.30;92.30
10986;DHT22;5546;48.714;8.738;2022-10-16T14:11:21;25.40;92.60
10986;DHT22;5546;48.714;8.738;2022-10-16T14:13:48;25.60;92.10
10986;DHT22;5546;48.714;8.738;2022-10-16T14:16:21;25.20;91.20
10986;DHT22;5546;48.714;8.738;2022-10-16T14:21:19;25.30;91.50
10986;DHT22;5546;48.714;8.738;2022-10-16T14:23:45;25.00;92.30
10986;DHT22;5546;48.714;8.738;2022-10-16T14:28:39;25.30;92.50
10986;DHT22;5546;48.714;8.738;2022-10-16T14:31:31;25.50;92.10
10986;DHT22;5546;48.714;8.738;2022-10-16T14:33:58;25.50;92.40
10986;DHT22;5546;48.714;8.738;2022-10-16T14:36:25;25.20;92.20
10986;DHT22;5546;48.714;8.738;2022-10-16T14:38:59;25.20;92.60
10986;DHT22;5546;48.714;8.738;2022-10-16T14:41:33;25.40;92.30
10986;DHT22;5546;48.714;8.738;2022-10-16T14:44:06;25.10;91.80
10986;DHT22;5546;48.714;8.738;2022-10-16T14:46:34;24.90;92.30
10986;DHT22;5546;48.714;8.738;2022-10-16T14:49:14;24.60;93.40
10986;DHT22;5546;48.714;8.738;2022-10-16T14:51:41;24.90;93.30
10986;DHT22;5546;48.714;8.738;2022-10-16T14:54:09;24.90;92.00
10986;DHT22;5546;48.714;8.738;2022-10-16T14:56:50;24.50;92.40
10986;DHT22;5546;48.714;8.738;2022-10-16T14:59:35;24.20;92.90
10986;DHT22;5546;48.714;8.738;2022-10-16T15:04:41;23.60;94.00
10986;DHT22;5546;48.714;8.738;2022-10-16T15:07:07;23.50;94.50
10986;DHT22;5546;48.714;8.738;2022-10-16T15:09:33;23.80;94.30
10986;DHT22;5546;48.714;8.738;2022-10-16T15:11:58;23.90;93.00
10986;DHT22;5546;48.714;8.738;2022-10-16T15:14:24;23.90;93.40
10986;DHT22;5546;48.714;8.738;2022-10-16T15:16:49;23.30;94.80
10986;DHT22;5546;48.714;8.738;2022-10-16T15:19:15;23.30;94.70
10986;DHT22;5546;48.714;8.738;2022-10-16T15:21:40;23.00;95.00
10986;DHT22;5546;48.714;8.738;2022-10-16T15:24:09;22.80;96.20
10986;DHT22;5546;48.714;8.738;2022-10-16T15:26:36;22.70;96.50
10986;DHT22;5546;48.714;8.738;2022-10-16T15:29:05;23.00;95.70
10986;DHT22;5546;48.714;8.738;2022-10-16T15:31:31;22.80;96.30
10986;DHT22;5546;48.714;8.738;2022-10-16T15:33:57;23.00;95.90
10986;DHT22;5546;48.714;8.738;2022-10-16T15:36:31;23.10;96.20
10986;DHT22;5546;48.714;8.738;2022-10-16T15:38:59;23.00;96.00
10986;DHT22;5546;48.714;8.738;2022-10-16T15:41:25;22.30;97.20
10986;DHT22;5546;48.714;8.738;2022-10-16T15:43:51;21.50;98.60
10986;DHT22;5546;48.714;8.738;2022-10-16T15:46:19;21.40;99.00
10986;DHT22;5546;48.714;8.738;2022-10-16T15:48:46;21.50;99.30
10986;DHT22;5546;48.714;8.738;2022-10-16T15:51:12;21.40;99.70
10986;DHT22;5546;48.714;8.738;2022-10-16T15:53:37;22.10;98.20
10986;DHT22;5546;48.714;8.738;2022-10-16T15:56:07;22.10;98.40
10986;DHT22;5546;48.714;8.738;2022-10-16T15:58:34;21.90;98.80
10986;DHT22;5546;48.714;8.738;2022-10-16T16:01:00;21.80;99.10
10986;DHT22;5546;48.714;8.738;2022-10-16T16:03:27;21.60;99.10
10986;DHT22;5546;48.714;8.738;2022-10-16T16:05:53;21.60;99.30
10986;DHT22;5546;48.714;8.738;2022-10-16T16:08:19;21.40;99.50
10986;DHT22;5546;48.714;8.738;2022-10-16T16:10:45;21.30;99.80
10986;DHT22;5546;48.714;8.738;2022-10-16T16:13:10;21.50;99.20
10986;DHT22;5546;48.714;8.738;2022-10-16T16:15:39;21.20;99.80
10986;DHT22;5546;48.714;8.738;2022-10-16T16:18:05;21.20;99.90
10986;DHT22;5546;48.714;8.738;2022-10-16T16:20:31;21.20;99.90
10986;DHT22;5546;48.714;8.738;2022-10-16T16:22:56;21.10;99.70
10986;DHT22;5546;48.714;8.738;2022-10-16T16:25:22;21.10;99.90
10986;DHT22;5546;48.714;8.738;2022-10-16T16:27:47;21.20;99.80
10986;DHT22;5546;48.714;8.738;2022-10-16T16:30:13;21.00;99.90
10986;DHT22;5546;48.714;8.738;2022-10-16T16:32:39;20.90;99.90
10986;DHT22;5546;48.714;8.738;2022-10-16T16:35:04;20.90;99.60
10986;DHT22;5546;48.714;8.738;2022-10-16T16:37:31;20.90;99.90
10986;DHT22;5546;48.714;8.738;2022-10-16T16:39:56;20.90;99.90
10986;DHT22;5546;48.714;8.738;2022-10-16T16:42:24;20.70;99.90
10986;DHT22;5546;48.714;8.738;2022-10-16T16:44:50;21.00;99.50
10986;DHT22;5546;48.714;8.738;2022-10-16T16:47:16;21.00;99.70
10986;DHT22;5546;48.714;8.738;2022-10-16T16:49:42;21.00;99.90
10986;DHT22;5546;48.714;8.738;2022-10-16T16:52:07;20.60;99.90
10986;DHT22;5546;48.714;8.738;2022-10-16T16:56:59;20.20;99.90
10986;DHT22;5546;48.714;8.738;2022-10-16T16:59:24;20.20;99.90
10986;DHT22;5546;48.714;8.738;2022-10-16T17:01:50;20.20;99.90
10986;DHT22;5546;48.714;8.738;2022-10-16T17:04:17;20.30;99.90
10986;DHT22;5546;48.714;8.738;2022-10-16T17:06:42;20.20;99.90
10986;DHT22;5546;48.714;8.738;2022-10-16T17:09:08;20.20;99.90
10986;DHT22;5546;48.714;8.738;2022-10-16T17:11:35;20.20;99.90
10986;DHT22;5546;48.714;8.738;2022-10-16T17:14:01;19.90;99.90
10986;DHT22;5546;48.714;8.738;2022-10-16T17:16:30;19.80;99.90
10986;DHT22;5546;48.714;8.738;2022-10-16T17:18:59;19.80;99.90
10986;DHT22;5546;48.714;8.738;2022-10-16T17:21:25;19.80;99.90
10986;DHT22;5546;48.714;8.738;2022-10-16T17:23:52;19.80;99.90
10986;DHT22;5546;48.714;8.738;2022-10-16T17:26:18;19.80;99.90
10986;DHT22;5546;48.714;8.738;2022-10-16T17:28:44;19.80;99.80
10986;DHT22;5546;48.714;8.738;2022-10-16T17:33:40;19.70;99.80
10986;DHT22;5546;48.714;8.738;2022-10-16T17:36:06;19.50;99.90
10986;DHT22;5546;48.714;8.738;2022-10-16T17:38:32;19.50;99.90
10986;DHT22;5546;48.714;8.738;2022-10-16T17:40:58;19.30;99.90
10986;DHT22;5546;48.714;8.738;2022-10-16T17:43:24;19.30;99.90
10986;DHT22;5546;48.714;8.738;2022-10-16T17:45:49;19.20;99.90